Time;durP1;ratioP1;P1;durP2;ratioP2;P2;SDS_P1;SDS_P2;PMS_P1;PMS_P2;Temp;Humidity;BMP_temperature;BMP_pressure;BME280_temperature;BME280_humidity;BME280_pressure;Samples;Min_cycle;Max_cycle;Signal;HPM_P1;HPM_P2
2023/08/01 00:01:24;;;;;;;35.45;18.58;;;;;;;14.80;100.00;99826.66;5064820;28;20021;-71
2023/08/01 00:03:49;;;;;;;33.28;16.88;;;;;;;14.76;100.00;99817.88;5067208;28;20044;-68
2023/08/01 00:06:15;;;;;;;32.92;17.23;;;;;;;14.71;100.00;99808.28;5065765;28;20031;-68
2023/08/01 00:08:40;;;;;;;33.28;16.10;;;;;;;14.73;100.00;99814.44;5066208;28;20036;-76
2023/08/01 00:11:05;;;;;;;30.20;16.02;;;;;;;14.68;100.00;99811.03;5066833;28;20395;-68
2023/08/01 00:13:31;;;;;;;32.08;16.15;;;;;;;14.65;100.00;99806.69;5064418;28;20029;-72
2023/08/01 00:15:56;;;;;;;31.77;15.88;;;;;;;14.63;100.00;99804.09;5067960;28;20455;-69
2023/08/01 00:18:21;;;;;;;31.75;16.13;;;;;;;14.59;100.00;99799.72;5064625;28;20033;-68
2023/08/01 00:20:47;;;;;;;31.92;16.20;;;;;;;14.58;100.00;99805.94;5066454;28;20112;-68
2023/08/01 00:23:12;;;;;;;31.42;16.00;;;;;;;14.58;100.00;99808.63;5065952;28;20076;-68
2023/08/01 00:25:37;;;;;;;31.05;15.95;;;;;;;14.56;100.00;99807.81;5065059;28;20032;-75
2023/08/01 00:28:03;;;;;;;31.98;16.10;;;;;;;14.55;100.00;99806.03;5067110;28;20067;-68
2023/08/01 00:30:28;;;;;;;30.20;15.27;;;;;;;14.54;100.00;99803.44;5064207;28;20017;-68
2023/08/01 00:32:53;;;;;;;30.10;15.02;;;;;;;14.52;100.00;99798.16;5067213;28;20472;-68
2023/08/01 00:35:19;;;;;;;30.48;15.40;;;;;;;14.48;100.00;99800.00;5064795;28;20035;-68
2023/08/01 00:37:44;;;;;;;32.05;15.52;;;;;;;14.49;100.00;99795.59;5065790;28;20017;-73
2023/08/01 00:40:10;;;;;;;31.55;15.85;;;;;;;14.45;100.00;99788.59;5066012;28;20036;-68
2023/08/01 00:42:37;;;;;;;30.63;16.02;;;;;;;14.43;100.00;99801.06;5064551;28;20067;-68
2023/08/01 00:45:04;;;;;;;31.13;15.45;;;;;;;14.38;100.00;99795.00;5066838;28;20036;-68
2023/08/01 00:47:29;;;;;;;29.75;14.65;;;;;;;14.37;100.00;99790.59;5063692;28;20119;-68
2023/08/01 00:49:54;;;;;;;32.10;15.63;;;;;;;14.34;100.00;99796.00;5067404;28;20043;-67
2023/08/01 00:52:20;;;;;;;30.55;15.20;;;;;;;14.26;100.00;99790.91;5064668;28;20395;-68
2023/08/01 00:54:45;;;;;;;32.72;15.13;;;;;;;14.24;100.00;99800.69;5065549;28;20111;-68
2023/08/01 00:57:11;;;;;;;32.75;15.55;;;;;;;14.22;100.00;99794.56;5065738;28;20027;-68
2023/08/01 00:59:36;;;;;;;29.08;15.02;;;;;;;14.20;100.00;99799.91;5064315;28;20098;-67
2023/08/01 01:02:02;;;;;;;30.77;15.23;;;;;;;14.15;100.00;99801.81;5066318;28;20025;-67
2023/08/01 01:04:28;;;;;;;30.90;16.30;;;;;;;14.13;100.00;99804.50;5063622;28;20112;-68
2023/08/01 01:07:06;;;;;;;32.67;15.88;;;;;;;14.12;100.00;99788.63;5066579;28;20028;-67
2023/08/01 01:09:31;;;;;;;31.70;16.25;;;;;;;14.10;100.00;99787.78;5059750;28;20472;-68
2023/08/01 01:11:58;;;;;;;30.40;14.52;;;;;;;14.09;100.00;99791.34;5067090;28;20031;-67
2023/08/01 01:14:24;;;;;;;32.72;15.60;;;;;;;14.05;100.00;99782.63;5063470;28;20029;-67
2023/08/01 01:16:51;;;;;;;31.17;15.63;;;;;;;14.00;100.00;99781.00;5065663;28;20035;-68
2023/08/01 01:19:16;;;;;;;29.05;14.45;;;;;;;13.94;100.00;99785.53;5064505;28;20036;-67
2023/08/01 01:21:43;;;;;;;31.00;15.20;;;;;;;13.90;100.00;99781.22;5064675;28;20029;-67
2023/08/01 01:24:10;;;;;;;30.45;14.38;;;;;;;13.86;100.00;99784.88;5065379;28;20028;-68
2023/08/01 01:26:36;;;;;;;31.25;14.27;;;;;;;13.86;100.00;99782.22;5063714;28;20029;-67
2023/08/01 01:29:05;;;;;;;30.95;13.75;;;;;;;13.82;100.00;99787.63;5066302;28;20050;-69
2023/08/01 01:31:32;;;;;;;28.83;14.27;;;;;;;13.78;100.00;99789.50;5062813;28;20025;-68
2023/08/01 01:33:57;;;;;;;31.08;13.98;;;;;;;13.78;100.00;99789.50;5059078;28;20029;-74
2023/08/01 01:36:23;;;;;;;31.42;14.60;;;;;;;13.80;100.00;99784.16;5065730;28;20550;-68
2023/08/01 01:38:48;;;;;;;30.40;14.35;;;;;;;13.81;100.00;99781.47;5063755;28;20028;-68
2023/08/01 01:41:13;;;;;;;29.42;14.10;;;;;;;13.81;100.00;99778.81;5064656;28;20061;-68
2023/08/01 01:43:39;;;;;;;29.60;13.70;;;;;;;13.82;100.00;99782.31;5064911;28;20471;-68
2023/08/01 01:46:04;;;;;;;30.60;14.65;;;;;;;13.80;100.00;99779.72;5062984;28;20037;-75
2023/08/01 01:48:29;;;;;;;29.42;14.25;;;;;;;13.77;100.00;99777.13;5066260;28;20103;-68
2023/08/01 01:50:55;;;;;;;30.35;14.60;;;;;;;13.74;100.00;99774.56;5062544;28;20060;-67
2023/08/01 01:53:20;;;;;;;33.15;15.13;;;;;;;13.70;100.00;99772.88;5065346;28;20174;-67
2023/08/01 01:55:45;;;;;;;31.95;14.75;;;;;;;13.64;100.00;99771.25;5063872;28;20120;-76
2023/08/01 01:58:11;;;;;;;32.95;15.02;;;;;;;13.57;100.00;99781.19;5063625;28;20029;-75
2023/08/01 02:00:36;;;;;;;33.17;14.50;;;;;;;13.55;100.00;99775.00;5064960;28;20024;-67
2023/08/01 02:03:02;;;;;;;33.58;14.90;;;;;;;13.49;100.00;99772.53;5062551;28;20499;-67
2023/08/01 02:05:28;;;;;;;30.25;14.35;;;;;;;13.47;100.00;99777.00;5065692;28;20104;-67
2023/08/01 02:07:54;;;;;;;31.23;14.88;;;;;;;13.41;100.00;99769.16;5062606;28;20017;-67
2023/08/01 02:10:19;;;;;;;33.83;14.77;;;;;;;13.39;100.00;99766.56;5064356;28;20492;-75
2023/08/01 02:12:44;;;;;;;35.63;15.85;;;;;;;13.38;100.00;99766.59;5063197;28;20463;-67
2023/08/01 02:15:10;;;;;;;33.15;15.93;;;;;;;13.34;100.00;99772.84;5062962;28;20032;-67
2023/08/01 02:17:35;;;;;;;32.72;15.70;;;;;;;13.32;100.00;99764.91;5064769;28;20021;-67
2023/08/01 02:20:01;;;;;;;37.65;16.63;;;;;;;13.30;100.00;99773.84;5062034;28;20387;-67
2023/08/01 02:22:26;;;;;;;35.08;16.63;;;;;;;13.32;100.00;99770.22;5065319;28;20483;-67
2023/08/01 02:24:52;;;;;;;37.35;17.60;;;;;;;13.29;100.00;99766.78;5062431;28;20400;-67
2023/08/01 02:27:18;;;;;;;36.00;17.45;;;;;;;13.31;100.00;99759.66;5063909;28;20032;-67
2023/08/01 02:29:44;;;;;;;38.08;18.00;;;;;;;13.31;100.00;99776.47;5062652;28;20111;-67
2023/08/01 02:32:09;;;;;;;38.15;18.40;;;;;;;13.33;100.00;99774.63;5062761;28;20029;-67
2023/08/01 02:34:35;;;;;;;39.80;18.40;;;;;;;13.36;100.00;99771.09;5063045;28;20471;-67
2023/08/01 02:37:00;;;;;;;41.15;19.75;;;;;;;13.40;100.00;99775.41;5062023;28;20095;-67
2023/08/01 02:39:25;;;;;;;41.83;19.83;;;;;;;13.41;100.00;99783.34;5063451;28;20128;-67
2023/08/01 02:41:51;;;;;;;44.85;21.70;;;;;;;13.46;100.00;99785.00;5062564;28;20072;-67
2023/08/01 02:44:16;;;;;;;42.97;21.02;;;;;;;13.50;100.00;99792.84;5063542;28;20514;-67
2023/08/01 02:46:41;;;;;;;45.95;21.80;;;;;;;13.50;100.00;99787.53;5063613;28;20056;-67
2023/08/01 02:49:07;;;;;;;45.17;21.85;;;;;;;13.52;100.00;99788.38;5062257;28;20032;-67
2023/08/01 02:51:32;;;;;;;45.10;21.95;;;;;;;13.51;100.00;99799.03;5064666;28;20032;-67
2023/08/01 02:53:57;;;;;;;44.30;21.33;;;;;;;13.54;100.00;99799.84;5061368;28;20025;-67
2023/08/01 02:56:23;;;;;;;44.42;21.30;;;;;;;13.55;100.00;99796.25;5064322;28;20116;-68
2023/08/01 02:58:48;;;;;;;43.67;21.67;;;;;;;13.56;100.00;99795.34;5062293;28;20379;-67
2023/08/01 03:01:14;;;;;;;44.13;21.55;;;;;;;13.56;100.00;99794.50;5062718;28;20029;-67
2023/08/01 03:03:39;;;;;;;44.97;21.13;;;;;;;13.56;100.00;99794.50;5063721;28;20033;-67
2023/08/01 03:06:04;;;;;;;44.13;21.63;;;;;;;13.57;100.00;99783.84;5061352;28;20024;-67
2023/08/01 03:08:30;;;;;;;44.72;21.63;;;;;;;13.57;100.00;99786.50;5064560;28;20025;-67
2023/08/01 03:10:55;;;;;;;45.95;21.52;;;;;;;13.56;100.00;99771.47;5059748;28;20053;-68
2023/08/01 03:13:21;;;;;;;45.33;22.60;;;;;;;13.57;100.00;99777.63;5063490;28;20051;-68
2023/08/01 03:15:47;;;;;;;44.90;22.27;;;;;;;13.55;100.00;99790.09;5062446;28;20032;-75
2023/08/01 03:18:12;;;;;;;46.65;22.98;;;;;;;13.55;100.00;99785.63;5062360;28;20395;-67
2023/08/01 03:20:37;;;;;;;45.75;23.17;;;;;;;13.54;100.00;99789.22;5063639;28;20032;-67
2023/08/01 03:23:03;;;;;;;46.92;23.38;;;;;;;13.55;100.00;99790.94;5061049;28;20083;-68
2023/08/01 03:25:29;;;;;;;49.70;25.17;;;;;;;13.55;100.00;99782.97;5064552;28;20075;-67
2023/08/01 03:27:54;;;;;;;46.97;23.73;;;;;;;13.59;100.00;99786.44;5061144;28;20029;-67
2023/08/01 03:30:20;;;;;;;50.03;25.35;;;;;;;13.59;100.00;99787.31;5063594;28;20080;-75
2023/08/01 03:32:46;;;;;;;51.53;26.30;;;;;;;13.63;100.00;99789.88;5062426;28;20033;-75
2023/08/01 03:35:13;;;;;;;50.47;25.42;;;;;;;13.64;100.00;99788.97;5062299;28;20036;-75
2023/08/01 03:37:39;;;;;;;51.15;26.45;;;;;;;13.66;100.00;99796.00;5063424;28;20032;-67
2023/08/01 03:40:08;;;;;;;50.33;26.58;;;;;;;13.65;100.00;99782.78;5061033;28;20033;-68
2023/08/01 03:42:34;;;;;;;50.85;26.30;;;;;;;13.70;100.00;99794.13;5063797;28;20124;-67
2023/08/01 03:44:59;;;;;;;51.83;27.58;;;;;;;13.69;100.00;99787.06;5060887;28;20075;-67
2023/08/01 03:47:24;;;;;;;50.83;26.90;;;;;;;13.72;100.00;99798.50;5063621;28;20040;-75
2023/08/01 03:49:50;;;;;;;55.42;29.10;;;;;;;13.70;100.00;99805.66;5061605;28;20024;-67
2023/08/01 03:52:15;;;;;;;53.47;28.90;;;;;;;13.70;100.00;99800.34;5062487;28;20112;-68
2023/08/01 03:54:40;;;;;;;55.33;29.05;;;;;;;13.71;100.00;99793.22;5061580;28;20109;-67
2023/08/01 03:57:06;;;;;;;52.28;27.90;;;;;;;13.72;100.00;99797.66;5060920;28;20025;-66
2023/08/01 03:59:31;;;;;;;55.63;30.23;;;;;;;13.69;100.00;99798.59;5064289;28;20044;-67
2023/08/01 04:01:57;;;;;;;55.28;30.52;;;;;;;13.71;100.00;99801.19;5060506;28;20041;-67
2023/08/01 04:04:23;;;;;;;52.95;29.45;;;;;;;13.70;100.00;99805.66;5063152;28;20534;-67
2023/08/01 04:06:48;;;;;;;54.03;29.92;;;;;;;13.69;100.00;99787.97;5061919;28;20480;-67
2023/08/01 04:09:14;;;;;;;54.70;29.90;;;;;;;13.68;100.00;99790.66;5061884;28;20499;-67
2023/08/01 04:11:39;;;;;;;52.83;29.58;;;;;;;13.67;100.00;99786.25;5062911;28;20083;-67
2023/08/01 04:14:04;;;;;;;53.17;29.77;;;;;;;13.68;100.00;99798.63;5059400;28;20068;-67
2023/08/01 04:16:30;;;;;;;52.92;29.00;;;;;;;13.66;100.00;99797.78;5063800;28;20036;-67
2023/08/01 04:18:55;;;;;;;53.03;29.73;;;;;;;13.66;100.00;99793.34;5060921;28;20035;-67
2023/08/01 04:21:20;;;;;;;51.47;29.20;;;;;;;13.68;100.00;99798.63;5062661;28;20029;-67
2023/08/01 04:23:46;;;;;;;55.13;30.05;;;;;;;13.69;100.00;99792.38;5061907;28;20039;-67
2023/08/01 04:26:11;;;;;;;54.70;29.67;;;;;;;13.72;100.00;99802.97;5061517;28;20125;-67
2023/08/01 04:28:36;;;;;;;54.22;29.63;;;;;;;13.77;100.00;99795.72;5063051;28;20028;-67
2023/08/01 04:31:02;;;;;;;52.75;28.80;;;;;;;13.81;100.00;99792.09;5060299;28;20057;-68
2023/08/01 04:33:28;;;;;;;56.38;30.27;;;;;;;13.80;100.00;99787.69;5063734;28;20075;-67
2023/08/01 04:35:53;;;;;;;52.03;28.33;;;;;;;13.81;100.00;99785.91;5060772;28;20033;-67
2023/08/01 04:38:19;;;;;;;52.53;28.65;;;;;;;13.80;100.00;99787.69;5065692;28;20059;-67
2023/08/01 04:40:44;;;;;;;54.45;29.20;;;;;;;13.80;100.00;99787.69;5065825;28;20037;-67
2023/08/01 04:43:10;;;;;;;49.78;28.55;;;;;;;13.82;100.00;99799.16;5064552;28;20033;-67
2023/08/01 04:45:36;;;;;;;51.22;28.65;;;;;;;13.83;100.00;99790.25;5066765;28;20024;-67
2023/08/01 04:48:01;;;;;;;50.53;28.52;;;;;;;13.88;100.00;99798.97;5063924;28;20033;-67
2023/08/01 04:50:26;;;;;;;48.20;27.70;;;;;;;13.91;100.00;99804.22;5066719;28;20070;-66
2023/08/01 04:52:52;;;;;;;47.90;27.23;;;;;;;13.91;100.00;99808.66;5064498;28;20139;-67
2023/08/01 04:55:17;;;;;;;48.17;28.08;;;;;;;13.93;100.00;99813.00;5065740;28;20490;-67
2023/08/01 04:57:43;;;;;;;47.00;26.65;;;;;;;13.89;100.00;99818.44;5065513;28;20111;-74
2023/08/01 05:00:09;;;;;;;46.70;28.40;;;;;;;13.89;100.00;99815.78;5064336;28;20155;-67
2023/08/01 05:02:35;;;;;;;47.42;28.75;;;;;;;13.88;100.00;99806.97;5066556;28;20111;-66
2023/08/01 05:05:00;;;;;;;45.95;26.95;;;;;;;13.87;100.00;99813.16;5063412;28;20534;-66
2023/08/01 05:07:25;;;;;;;49.45;26.98;;;;;;;13.89;100.00;99810.47;5066550;28;20367;-67
2023/08/01 05:09:51;;;;;;;45.13;26.95;;;;;;;13.90;100.00;99812.22;5064174;28;20388;-72
2023/08/01 05:12:17;;;;;;;49.88;27.55;;;;;;;13.89;100.00;99815.78;5064889;28;20110;-66
2023/08/01 05:14:42;;;;;;;45.55;27.00;;;;;;;13.91;100.00;99820.16;5065473;28;20044;-66
2023/08/01 05:17:08;;;;;;;48.90;27.10;;;;;;;13.90;100.00;99817.53;5063651;28;20027;-67
2023/08/01 05:19:33;;;;;;;43.53;25.35;;;;;;;13.90;100.00;99817.53;5066809;28;20060;-66
2023/08/01 05:21:58;;;;;;;47.45;25.55;;;;;;;13.92;100.00;99816.59;5059208;28;20499;-67
2023/08/01 05:24:24;;;;;;;42.03;25.23;;;;;;;13.89;100.00;99818.44;5065942;28;20059;-67
2023/08/01 05:26:50;;;;;;;43.00;24.83;;;;;;;13.90;100.00;99812.22;5064210;28;20458;-66
2023/08/01 05:29:15;;;;;;;41.40;24.13;;;;;;;13.89;100.00;99819.34;5064608;28;20036;-66
2023/08/01 05:31:40;;;;;;;44.97;24.40;;;;;;;13.88;100.00;99811.41;5065451;28;20391;-66
2023/08/01 05:34:06;;;;;;;44.28;24.73;;;;;;;13.87;100.00;99818.47;5063226;28;20029;-67
2023/08/01 05:36:31;;;;;;;41.03;24.00;;;;;;;13.94;100.00;99819.22;5066165;28;20131;-76
2023/08/01 05:38:57;;;;;;;40.42;23.67;;;;;;;14.00;100.00;99816.38;5062961;28;20037;-67
2023/08/01 05:41:23;;;;;;;39.95;23.58;;;;;;;14.03;100.00;99820.75;5065612;28;20032;-67
2023/08/01 05:43:49;;;;;;;39.65;22.45;;;;;;;14.04;100.00;99815.41;5064209;28;20048;-67
2023/08/01 05:46:14;;;;;;;39.83;23.55;;;;;;;14.11;100.00;99834.69;5063989;28;20025;-66
2023/08/01 05:48:40;;;;;;;40.13;23.92;;;;;;;14.27;100.00;99827.19;5064215;28;20038;-67
2023/08/01 05:51:05;;;;;;;38.10;23.98;;;;;;;14.33;100.00;99826.16;5062554;28;20079;-66
2023/08/01 05:53:30;;;;;;;37.67;22.95;;;;;;;14.36;100.00;99824.31;5066020;28;20056;-67
2023/08/01 05:55:56;;;;;;;37.67;23.52;;;;;;;14.37;100.00;99834.03;5062927;28;20078;-67
2023/08/01 05:58:21;;;;;;;37.85;22.38;;;;;;;14.29;100.00;99836.88;5060367;28;20151;-74
2023/08/01 06:00:47;;;;;;;36.80;22.90;;;;;;;14.37;100.00;99830.47;5065027;28;20471;-75
2023/08/01 06:03:12;;;;;;;36.70;22.83;;;;;;;14.42;100.00;99837.41;5064742;28;20043;-74
2023/08/01 06:05:37;;;;;;;35.28;21.77;;;;;;;14.50;100.00;99845.16;5062403;28;20023;-72
2023/08/01 06:08:03;;;;;;;33.63;21.02;;;;;;;14.60;100.00;99835.16;5064441;28;20036;-74
2023/08/01 06:10:29;;;;;;;33.60;19.85;;;;;;;14.71;100.00;99842.84;5062138;28;20049;-74
2023/08/01 06:12:54;;;;;;;32.67;20.00;;;;;;;14.75;100.00;99836.53;5064467;28;20492;-74
2023/08/01 06:15:20;;;;;;;33.75;19.25;;;;;;;14.81;100.00;99839.03;5063571;28;20391;-74
2023/08/01 06:17:46;;;;;;;32.40;19.30;;;;;;;14.96;100.00;99841.22;5063348;28;20021;-74
2023/08/01 06:20:11;;;;;;;32.30;18.85;;;;;;;15.03;100.00;99843.69;5064262;28;20035;-78
2023/08/01 06:22:37;;;;;;;31.58;17.85;;;;;;;14.96;100.00;99849.22;5062115;28;20025;-76
2023/08/01 06:25:03;;;;;;;29.58;18.17;;;;;;;14.91;100.00;99844.94;5065205;28;20421;-87
2023/08/01 06:27:29;;;;;;;32.10;18.55;;;;;;;14.79;100.00;99841.75;5061754;28;20021;-89
2023/08/01 06:29:54;;;;;;;32.15;19.17;;;;;;;14.78;100.00;99844.44;5063137;28;20033;-86
2023/08/01 06:32:20;;;;;;;34.80;20.23;;;;;;;14.68;100.00;99849.16;5062594;28;20021;-89
2023/08/01 06:34:45;;;;;;;34.28;20.90;;;;;;;14.68;100.00;99834.97;5064026;28;20033;-88
2023/08/01 06:37:10;;;;;;;35.10;21.25;;;;;;;14.67;100.00;99841.22;5062996;28;20025;-91
2023/08/01 06:39:36;;;;;;;34.42;20.95;;;;;;;14.74;100.00;99848.13;5065189;28;20020;-91
2023/08/01 06:42:01;;;;;;;32.45;19.88;;;;;;;14.74;100.00;99843.66;5062232;28;20033;-92
2023/08/01 06:44:26;;;;;;;30.95;19.30;;;;;;;14.84;100.00;99843.38;5064649;28;20045;-92
2023/08/01 06:46:52;;;;;;;29.92;18.30;;;;;;;14.93;100.00;99843.13;5061644;28;20107;-91
2023/08/01 06:49:17;;;;;;;30.63;16.95;;;;;;;14.94;100.00;99858.16;5064587;28;20059;-91
2023/08/01 06:51:43;;;;;;;29.67;17.33;;;;;;;15.18;100.00;99853.91;5062415;28;20036;-85
2023/08/01 06:54:08;;;;;;;29.48;17.40;;;;;;;15.38;100.00;99849.75;5062473;28;20029;-86
2023/08/01 06:56:33;;;;;;;27.35;16.45;;;;;;;15.48;100.00;99843.25;5063801;28;20108;-82
2023/08/01 06:58:59;;;;;;;28.00;16.27;;;;;;;15.47;100.00;99862.78;5061319;28;20025;-91
2023/08/01 07:01:24;;;;;;;27.85;16.17;;;;;;;15.53;100.00;99843.94;5064714;28;20103;-92
2023/08/01 07:03:51;;;;;;;28.30;16.38;;;;;;;15.65;100.00;99856.00;5061746;28;20045;-90
2023/08/01 07:06:17;;;;;;;28.42;15.20;;;;;;;15.65;100.00;99858.66;5064665;28;20491;-92
2023/08/01 07:08:43;;;;;;;26.58;15.07;;;;;;;15.64;100.00;99847.16;5060954;28;20056;-75
2023/08/01 07:11:08;;;;;;;26.30;14.25;;;;;;;15.77;100.00;99847.63;5063894;28;20115;-75
2023/08/01 07:13:33;;;;;;;25.90;13.10;;;;;;;15.95;100.00;99848.81;5061979;28;20032;-78
2023/08/01 07:15:58;;;;;;;24.73;13.48;;;;;;;16.09;100.00;99844.81;5062466;28;20434;-74
2023/08/01 07:18:24;;;;;;;24.83;12.32;;;;;;;15.99;100.00;99850.47;5063114;28;20083;-75
2023/08/01 07:21:02;;;;;;;25.58;12.40;;;;;;;16.10;100.00;99849.22;5061206;28;20029;-74
2023/08/01 07:23:28;;;;;;;23.70;11.80;;;;;;;16.17;100.00;99840.94;5062576;28;20029;-75
2023/08/01 07:25:53;;;;;;;23.80;11.40;;;;;;;16.37;100.00;99839.41;5061916;28;20082;-75
2023/08/01 07:28:18;;;;;;;23.13;10.77;;;;;;;16.34;100.00;99836.84;5063607;28;20073;-75
2023/08/01 07:30:44;;;;;;;23.38;10.27;;;;;;;16.25;100.00;99837.16;5060764;28;20163;-74
2023/08/01 07:33:09;;;;;;;22.33;9.48;;;;;;;16.11;100.00;99833.19;5063876;28;20032;-75
2023/08/01 07:35:34;;;;;;;23.77;9.52;;;;;;;16.18;100.00;99847.19;5061273;28;20456;-71
2023/08/01 07:37:59;;;;;;;21.90;9.10;;;;;;;16.28;100.00;99848.59;5054178;28;20035;-74
2023/08/01 07:40:25;;;;;;;22.70;9.57;;;;;;;16.47;100.00;99840.81;5062823;28;20111;-70
2023/08/01 07:42:50;;;;;;;22.70;9.23;;;;;;;16.65;100.00;99846.41;5059183;28;20068;-74
2023/08/01 07:45:16;;;;;;;21.63;8.93;;;;;;;16.56;100.00;99844.94;5064012;28;20111;-75
2023/08/01 07:47:41;;;;;;;21.90;8.98;;;;;;;16.42;100.00;99844.56;5061624;28;20464;-68
2023/08/01 07:50:07;;;;;;;21.63;8.45;;;;;;;16.42;100.00;99855.25;5062808;28;20472;-66
2023/08/01 07:52:32;;;;;;;21.88;7.75;;;;;;;16.64;100.00;99842.84;5062607;28;20464;-67
2023/08/01 07:54:58;;;;;;;20.10;6.80;;;;;;;16.70;100.00;99847.97;5041299;28;20087;-73
2023/08/01 07:57:23;;;;;;;19.98;6.45;;;;;;;16.69;100.00;99840.91;5063509;28;20378;-67
2023/08/01 07:59:49;;;;;;;19.55;6.40;;;;;;;16.71;100.00;99839.03;5059527;28;20092;-70
2023/08/01 08:02:14;;;;;;;18.65;6.07;;;;;;;16.85;100.00;99848.34;5063820;28;20471;-70
2023/08/01 08:04:39;;;;;;;18.25;5.50;;;;;;;16.98;100.00;99846.97;5061291;28;20037;-75
2023/08/01 08:07:05;;;;;;;19.98;5.57;;;;;;;16.90;100.00;99849.91;5062823;28;20114;-74
2023/08/01 08:09:30;;;;;;;18.95;5.45;;;;;;;16.73;100.00;99846.97;5062718;28;20029;-73
2023/08/01 08:11:57;;;;;;;18.67;5.72;;;;;;;16.73;100.00;99839.88;5062421;28;20369;-76
2023/08/01 08:14:23;;;;;;;18.70;5.57;;;;;;;16.69;100.00;99832.03;5067652;28;20028;-74
2023/08/01 08:16:48;;;;;;;18.85;5.95;;;;;;;16.69;100.00;99854.25;5062693;28;20033;-78
2023/08/01 08:19:14;;;;;;;19.77;6.20;;;;;;;16.80;100.00;99848.50;5061315;28;20074;-76
2023/08/01 08:21:39;;;;;;;19.13;6.10;;;;;;;16.85;100.00;99853.69;5064055;28;20107;-73
2023/08/01 08:24:04;;;;;;;19.58;6.28;;;;;;;16.95;100.00;99852.44;5062210;28;20471;-82
2023/08/01 08:26:31;;;;;;;18.52;6.07;;;;;;;17.06;100.00;99855.56;5065975;28;20029;-85
2023/08/01 08:28:57;;;;;;;19.52;6.22;;;;;;;17.18;100.00;99843.56;5062910;28;20494;-86
2023/08/01 08:31:22;;;;;;;19.38;6.30;;;;;;;17.49;100.00;99865.50;5067255;28;20258;-89
2023/08/01 08:33:47;;;;;;;20.08;6.35;;;;;;;17.66;100.00;99849.66;5064764;28;20060;-84
2023/08/01 08:36:13;;;;;;;20.10;6.82;;;;;;;17.82;100.00;99857.91;5067864;28;20036;-81
2023/08/01 08:38:38;;;;;;;20.90;6.70;;;;;;;17.31;100.00;99857.28;5065088;28;20040;-81
2023/08/01 08:41:13;;;;;;;20.30;7.80;;;;;;;16.54;100.00;99881.47;5065242;28;20028;-83
2023/08/01 08:43:41;;;;;;;20.00;6.63;;;;;;;15.81;100.00;99875.06;5065281;28;20033;-76
2023/08/01 08:46:08;;;;;;;22.10;7.82;;;;;;;15.40;100.00;99878.06;5064665;28;20021;-83
2023/08/01 08:48:35;;;;;;;21.42;8.25;;;;;;;15.20;100.00;99883.13;5060960;28;20036;-83
2023/08/01 08:51:01;;;;;;;24.05;9.23;;;;;;;15.13;100.00;99901.06;5067247;28;20032;-80
2023/08/01 08:53:27;;;;;;;22.50;9.20;;;;;;;15.08;100.00;99909.19;5063638;28;20054;-90
2023/08/01 08:55:52;;;;;;;21.75;8.30;;;;;;;15.16;100.00;99907.19;5063186;28;20122;-87
2023/08/01 08:58:18;;;;;;;22.73;6.70;;;;;;;14.91;100.00;99891.06;5057962;28;20444;-76
2023/08/01 09:00:44;;;;;;;16.48;4.47;;;;;;;14.50;100.00;99901.00;5066806;28;20450;-79
2023/08/01 09:03:10;;;;;;;15.32;4.30;;;;;;;14.26;100.00;99902.56;5063381;28;20033;-71
2023/08/01 09:05:44;;;;;;;15.82;4.30;;;;;;;14.21;100.00;99901.78;5066076;28;20480;-77
2023/08/01 09:08:19;;;;;;;20.48;6.47;;;;;;;14.47;100.00;99909.06;5063470;28;20029;-74
2023/08/01 09:10:45;;;;;;;19.52;7.13;;;;;;;14.72;100.00;99903.13;5066294;28;20051;-76
2023/08/01 09:13:11;;;;;;;22.02;7.80;;;;;;;14.95;100.00;99903.34;5064774;28;20497;-81
2023/08/01 09:15:36;;;;;;;21.58;7.82;;;;;;;15.13;100.00;99914.38;5065496;28;20020;-77
2023/08/01 09:18:07;;;;;;;20.45;6.85;;;;;;;15.10;100.00;99906.47;5063752;28;20036;-78
2023/08/01 09:20:49;;;;;;;21.10;6.40;;;;;;;15.20;100.00;99909.75;5062052;28;20025;-78
2023/08/01 09:23:16;;;;;;;20.17;6.50;;;;;;;15.08;100.00;99924.31;5059397;28;20044;-77
2023/08/01 09:25:42;;;;;;;21.33;6.50;;;;;;;15.04;100.00;99922.63;5065627;28;20032;-78
2023/08/01 09:28:24;;;;;;;20.45;6.40;;;;;;;14.92;100.00;99932.69;5064241;28;20112;-74
2023/08/01 09:30:51;;;;;;;21.83;6.82;;;;;;;14.89;100.00;99934.59;5065856;28;20035;-75
2023/08/01 09:33:18;;;;;;;21.77;7.10;;;;;;;14.84;100.00;99929.41;5063859;28;20020;-69
2023/08/01 09:35:45;;;;;;;19.42;5.30;;;;;;;14.64;100.00;99933.47;5064212;28;20039;-67
2023/08/01 09:38:13;;;;;;;16.88;4.60;;;;;;;14.48;100.00;99921.47;5065158;28;20037;-67
2023/08/01 09:40:39;;;;;;;16.45;4.20;;;;;;;14.32;100.00;99928.09;5062988;28;20029;-69
2023/08/01 09:43:06;;;;;;;18.13;4.35;;;;;;;14.25;100.00;99919.41;5065709;28;20028;-67
2023/08/01 09:45:34;;;;;;;16.50;4.35;;;;;;;14.04;100.00;99920.81;5061817;28;20082;-74
2023/08/01 09:48:00;;;;;;;20.00;4.80;;;;;;;13.97;100.00;99937.81;5055399;28;20418;-75
2023/08/01 09:50:25;;;;;;;23.67;5.80;;;;;;;13.78;100.00;99939.13;5059808;28;20498;-66
2023/08/01 09:52:53;;;;;;;19.70;5.57;;;;;;;13.75;100.00;99931.22;5062920;28;20028;-78
2023/08/01 09:55:28;;;;;;;20.60;5.47;;;;;;;14.04;100.00;99932.31;5064242;28;20029;-79
2023/08/01 09:57:57;;;;;;;27.00;7.50;;;;;;;14.25;100.00;99941.53;5063618;28;20062;-79
2023/08/01 10:00:22;;;;;;;22.50;7.15;;;;;;;14.48;100.00;99940.94;5064387;28;20036;-79
2023/08/01 10:02:50;;;;;;;20.65;7.28;;;;;;;14.98;100.00;99948.53;5063778;28;20025;-78
2023/08/01 10:05:16;;;;;;;23.00;8.30;;;;;;;15.66;100.00;99946.50;5062135;28;20427;-79
2023/08/01 10:07:43;;;;;;;23.50;8.32;;;;;;;15.48;100.00;99952.44;5064742;28;20038;-76
2023/08/01 10:10:10;;;;;;;26.45;9.35;;;;;;;15.96;100.00;99948.28;5061943;28;20517;-78
2023/08/01 10:12:36;;;;;;;23.80;9.93;;;;;;;16.97;100.00;99953.81;5060071;28;20074;-78
2023/08/01 10:15:03;;;;;;;22.83;8.77;;;;;;;17.37;100.00;99955.88;5062647;28;20484;-78
2023/08/01 10:17:30;;;;;;;21.75;7.88;;;;;;;18.29;100.00;99948.72;5065165;28;20048;-82
2023/08/01 10:19:56;;;;;;;19.58;6.53;;;;;;;18.65;100.00;99936.50;5061242;28;20025;-83
2023/08/01 10:22:22;;;;;;;19.70;5.90;;;;;;;18.66;100.00;99937.38;5064117;28;20033;-82
2023/08/01 10:24:49;;;;;;;19.67;5.30;;;;;;;18.04;100.00;99923.91;5062152;28;20431;-68
2023/08/01 10:27:18;;;;;;;19.63;5.43;;;;;;;17.53;100.00;99931.25;5065133;28;20112;-68
2023/08/01 10:29:43;;;;;;;20.75;5.22;;;;;;;17.15;100.00;99930.91;5061559;28;20032;-69
2023/08/01 10:32:10;;;;;;;20.42;5.60;;;;;;;17.06;100.00;99927.63;5064846;28;20036;-81
2023/08/01 10:34:35;;;;;;;17.90;5.15;;;;;;;16.81;100.00;99924.09;5061438;28;20025;-68
2023/08/01 10:37:01;;;;;;;19.10;4.82;;;;;;;16.59;100.00;99924.00;5064016;28;20128;-68
2023/08/01 10:39:28;;;;;;;19.90;4.60;;;;;;;16.54;100.00;99930.38;5063177;28;20104;-68
2023/08/01 10:42:01;;;;;;;21.00;4.60;;;;;;;16.59;100.00;99926.66;5063065;28;20484;-68
2023/08/01 10:44:28;;;;;;;16.45;3.92;;;;;;;17.99;100.00;99929.44;5062924;28;20558;-68
2023/08/01 10:46:58;;;;;;;16.70;4.20;;;;;;;18.49;100.00;99911.34;5062737;28;20124;-69
2023/08/01 10:49:38;;;;;;;18.60;4.18;;;;;;;17.91;100.00;99927.09;5063754;28;20013;-68
2023/08/01 10:52:15;;;;;;;17.10;4.28;;;;;;;17.11;100.00;99922.16;5064278;28;20028;-68
2023/08/01 10:54:40;;;;;;;18.45;4.18;;;;;;;16.69;100.00;99928.09;5057387;28;20112;-68
2023/08/01 10:57:06;;;;;;;20.75;4.60;;;;;;;16.49;100.00;99931.44;5064233;28;20449;-67
2023/08/01 10:59:32;;;;;;;19.77;4.85;;;;;;;16.45;100.00;99945.81;5061086;28;20028;-81
2023/08/01 11:02:00;;;;;;;19.15;4.88;;;;;;;16.82;100.00;99942.72;5062809;28;20092;-68
2023/08/01 11:04:25;;;;;;;20.27;5.05;;;;;;;16.70;100.00;99946.72;5062580;28;20045;-71
2023/08/01 11:06:57;;;;;;;19.60;5.22;;;;;;;16.58;100.00;99946.25;5063597;28;20032;-77